Gloversville, New York
Current Conditions -  °F | °C
As of 10:55 AM on Wednesday 28 Jan 2015 (Local Time) from KNY0 Reporting Station
Clear Clear  
Wind Chill: -21°   Ceiling: Unl
Heat Index: -12°   Visibility: 10mi
Dew Point: -19°   Wind: 15mph
Humidity: 55%   Direction: 260°W
Pressure: 30.07"   Gusts: 24mph
Location:  43.06°N, 74.34°W
Report Text: KNY0 281555Z AUTO 26013G21KT 10SM CLR M12/M19 A3007 RMK AO2 T11201193
Loading
Personal Weather Stations






























Interactive Weather Map New forecast layout! Learn more

10-Day Weather Forecast

Advertisements
Track Severe Weather on mobile